Aérodrome :
LOGIN :

S'inscrire | Disclaimer

   EN    FR    IT 

 










Légende :    VFR   VFR Marginal   IFR   IFR Intensif   IFR Très Intensif
Visi : 
Plafond : 
>= 8 km
>= 3000ft
5 à 8 km
1000 à 3000 ft
1500m à 5 km
500 à 1000 ft
800 à 1500m
200 à 500 ft
< 800m
< 200 ft
Symboles :   Orages  Brouillard  Fortes neiges  Fortes précipitations  Vent > 20 kt
SIGMETs :   Divers  Orages  Givrage  Turbulence  Onde Orograph.  Cendres Volcan.






- Altitude de l'aérodrome : 13 ft
- Code IATA : LYX


EGMD - Lydd

DERNIER METAR :
  • 180550Z AUTO 34014KT 9999 SCT013/// BKN030/// 07/06 Q1012

METARs EXPIRÉS :
  • 180520Z AUTO 34013KT 9999 BKN011/// BKN017/// OVC029/// 07/06 Q1012
  • 180450Z AUTO 34013KT 9999 FEW004/// BKN010/// OVC017/// 07/07 Q1012
  • 180420Z AUTO 34015KT 9999 OVC008/// 07/07 Q1012
  • 180350Z AUTO 31009KT 8000 BKN007/// OVC011/// 07/07 Q1012
  • 180320Z AUTO 31009KT 9999 OVC008/// 07/06 Q1012

TAF TAF EGMD
Valide du 18 à 06h jusqu'au 18 à 15h UTC


180454Z 1806/1815 35015KT 9999 FEW030
PROB30
TEMPO 1806/1810 BKN012
TEMPO 1807/1812 34018G28KT
ATIS : +44 1797 322 422



MET'MAP, la Météo Aéronautique d'un coup d'oeil ! - Copyright ORBIFLY Décembre 2007 - Disclaimer

ORBIFLY MET'MAP TEAM :

Programmation & Développement : Alexandra Zaïnal
Conception & Développement : Baudouin d'Aumeries
Co-Programmation & Développement : Marc-Olivier Méhu
Soutien technique & logistique : Manuel Goepfert

Contact : metmap@orbifly.com




SOURCES & CREDITS :

   NOAA